createdAt,value
2023-06-28T00:00:34.740Z,447.00
2023-06-28T00:01:34.712Z,447.00
2023-06-28T00:02:34.718Z,450.00
2023-06-28T00:03:34.763Z,454.00
2023-06-28T00:04:34.835Z,454.00
2023-06-28T00:05:34.779Z,453.00
2023-06-28T00:06:34.796Z,453.00
2023-06-28T00:07:34.853Z,451.00
2023-06-28T00:08:34.833Z,450.00
2023-06-28T00:09:34.860Z,450.00
2023-06-28T00:10:34.927Z,450.00
2023-06-28T00:11:34.907Z,450.00
2023-06-28T00:12:34.969Z,449.00
2023-06-28T00:13:34.978Z,450.00
2023-06-28T00:14:35.000Z,452.00
2023-06-28T00:15:35.019Z,454.00
2023-06-28T00:16:35.038Z,454.00
2023-06-28T00:17:35.147Z,455.00
2023-06-28T00:18:35.068Z,454.00
2023-06-28T00:19:35.137Z,455.00
2023-06-28T00:20:35.115Z,455.00
2023-06-28T00:21:35.146Z,456.00
2023-06-28T00:22:35.213Z,455.00
2023-06-28T00:23:35.218Z,456.00
2023-06-28T00:24:35.230Z,457.00
2023-06-28T00:25:35.385Z,457.00
2023-06-28T00:26:35.266Z,456.00
2023-06-28T00:27:35.313Z,455.00
2023-06-28T00:28:35.414Z,456.00
2023-06-28T00:29:35.394Z,455.00
2023-06-28T00:30:35.458Z,455.00
2023-06-28T00:31:35.543Z,454.00
2023-06-28T00:32:35.593Z,455.00
2023-06-28T00:33:35.508Z,457.00
2023-06-28T00:34:35.483Z,458.00
2023-06-28T00:35:35.551Z,456.00
2023-06-28T00:36:35.619Z,454.00
2023-06-28T00:37:35.557Z,454.00
2023-06-28T00:38:35.598Z,455.00
2023-06-28T00:39:35.618Z,455.00
2023-06-28T00:40:35.631Z,456.00
2023-06-28T00:41:35.758Z,457.00
2023-06-28T00:42:35.734Z,456.00
2023-06-28T00:43:35.787Z,455.00
2023-06-28T00:44:35.784Z,454.00
2023-06-28T00:45:35.787Z,456.00
2023-06-28T00:46:35.811Z,457.00
2023-06-28T00:47:35.888Z,454.00
2023-06-28T00:48:35.908Z,454.00
2023-06-28T00:49:35.952Z,454.00
2023-06-28T00:50:35.915Z,455.00
2023-06-28T00:51:35.955Z,455.00
2023-06-28T00:52:35.994Z,454.00
2023-06-28T00:53:36.009Z,454.00
2023-06-28T00:54:36.068Z,453.00
2023-06-28T00:55:36.087Z,453.00
2023-06-28T00:56:36.133Z,454.00
2023-06-28T00:57:36.161Z,454.00
2023-06-28T00:58:36.161Z,455.00
2023-06-28T00:59:36.183Z,454.00
2023-06-28T01:00:36.210Z,452.00
2023-06-28T01:01:36.282Z,453.00
2023-06-28T01:02:36.371Z,456.00
2023-06-28T01:03:36.506Z,457.00
2023-06-28T01:04:36.344Z,459.00
2023-06-28T01:05:36.348Z,457.00
2023-06-28T01:06:36.459Z,457.00
2023-06-28T01:07:36.501Z,460.00
2023-06-28T01:08:36.468Z,459.00
2023-06-28T01:09:36.485Z,459.00
2023-06-28T01:10:36.496Z,460.00
2023-06-28T01:11:36.525Z,460.00
2023-06-28T01:12:36.539Z,462.00
2023-06-28T01:13:36.594Z,465.00
2023-06-28T01:14:36.601Z,465.00
2023-06-28T01:15:36.645Z,463.00
2023-06-28T01:16:36.678Z,464.00
2023-06-28T01:17:36.771Z,466.00
2023-06-28T01:18:36.745Z,464.00
2023-06-28T01:19:36.757Z,465.00
2023-06-28T01:20:36.794Z,465.00
2023-06-28T01:21:36.866Z,464.00
2023-06-28T01:22:36.869Z,465.00
2023-06-28T01:23:36.955Z,465.00
2023-06-28T01:24:36.920Z,465.00
2023-06-28T01:25:36.956Z,465.00
2023-06-28T01:26:37.020Z,465.00
2023-06-28T01:27:37.016Z,464.00
2023-06-28T01:28:37.068Z,461.00
2023-06-28T01:29:37.126Z,461.00
2023-06-28T01:30:37.141Z,462.00
2023-06-28T01:31:37.182Z,460.00
2023-06-28T01:32:37.316Z,459.00
2023-06-28T01:34:37.265Z,460.00
2023-06-28T01:35:37.295Z,461.00
2023-06-28T01:36:37.350Z,460.00
2023-06-28T01:37:37.436Z,459.00
2023-06-28T01:38:37.399Z,460.00
2023-06-28T01:39:37.435Z,462.00
2023-06-28T01:40:37.620Z,461.00
2023-06-28T01:41:37.523Z,463.00
2023-06-28T01:42:37.548Z,462.00
2023-06-28T01:43:37.574Z,461.00
2023-06-28T01:44:37.642Z,463.00
2023-06-28T01:45:37.672Z,463.00
2023-06-28T01:46:37.690Z,461.00
2023-06-28T01:47:37.771Z,461.00
2023-06-28T01:48:38.805Z,458.00
2023-06-28T01:49:37.815Z,458.00
2023-06-28T01:50:37.831Z,455.00
2023-06-28T01:51:37.916Z,456.00
2023-06-28T01:52:37.918Z,454.00
2023-06-28T01:53:37.966Z,454.00
2023-06-28T01:54:38.029Z,456.00
2023-06-28T01:55:38.025Z,455.00
2023-06-28T01:56:37.999Z,455.00
2023-06-28T01:57:38.096Z,455.00
2023-06-28T01:58:38.196Z,455.00
2023-06-28T01:59:38.162Z,457.00
2023-06-28T02:00:38.233Z,458.00
2023-06-28T02:01:38.319Z,456.00
2023-06-28T02:02:38.290Z,457.00
2023-06-28T02:03:38.394Z,455.00
2023-06-28T02:04:38.359Z,456.00
2023-06-28T02:05:38.426Z,460.00
2023-06-28T02:06:38.479Z,460.00
2023-06-28T02:07:38.577Z,463.00
2023-06-28T02:08:38.533Z,463.00
2023-06-28T02:09:38.611Z,463.00
2023-06-28T02:10:38.632Z,461.00
2023-06-28T02:11:38.636Z,461.00
2023-06-28T02:12:38.718Z,461.00
2023-06-28T02:13:38.744Z,462.00
2023-06-28T02:14:38.800Z,464.00
2023-06-28T02:15:38.857Z,464.00
2023-06-28T02:16:38.905Z,466.00
2023-06-28T02:17:38.993Z,467.00
2023-06-28T02:18:39.101Z,465.00
2023-06-28T02:19:38.988Z,465.00
2023-06-28T02:20:39.070Z,465.00
2023-06-28T02:21:39.093Z,464.00
2023-06-28T02:22:39.177Z,463.00
2023-06-28T02:23:39.174Z,464.00
2023-06-28T02:24:39.233Z,464.00
2023-06-28T02:25:39.296Z,462.00
2023-06-28T02:26:39.388Z,462.00
2023-06-28T02:27:39.406Z,462.00
2023-06-28T02:28:39.430Z,461.00
2023-06-28T02:29:39.443Z,458.00
2023-06-28T02:30:39.885Z,457.00
2023-06-28T02:31:39.939Z,458.00
2023-06-28T02:32:39.614Z,460.00
2023-06-28T02:33:39.645Z,459.00
2023-06-28T02:34:39.687Z,458.00
2023-06-28T02:35:39.729Z,456.00
2023-06-28T02:36:39.782Z,455.00
2023-06-28T02:37:39.912Z,457.00
2023-06-28T02:38:39.892Z,457.00
2023-06-28T02:39:39.893Z,456.00
2023-06-28T02:40:40.428Z,456.00
2023-06-28T02:41:39.983Z,455.00
2023-06-28T02:42:40.049Z,456.00
2023-06-28T02:43:40.060Z,457.00
2023-06-28T02:44:40.128Z,457.00
2023-06-28T02:45:40.162Z,458.00
2023-06-28T02:46:40.239Z,457.00
2023-06-28T02:47:40.278Z,460.00
2023-06-28T02:48:40.396Z,459.00
2023-06-28T02:49:40.332Z,460.00
2023-06-28T02:50:40.491Z,461.00
2023-06-28T02:51:41.295Z,459.00
2023-06-28T02:52:40.461Z,459.00
2023-06-28T02:53:40.525Z,457.00
2023-06-28T02:54:40.576Z,457.00
2023-06-28T02:55:40.611Z,456.00
2023-06-28T02:56:40.619Z,455.00
2023-06-28T02:57:40.701Z,456.00
2023-06-28T02:58:40.762Z,456.00
2023-06-28T02:59:40.776Z,455.00
2023-06-28T03:00:40.904Z,453.00
2023-06-28T03:01:40.871Z,451.00
2023-06-28T03:02:40.985Z,448.00
2023-06-28T03:03:41.015Z,448.00
2023-06-28T03:04:41.125Z,449.00
2023-06-28T03:05:41.360Z,449.00
2023-06-28T03:06:41.077Z,449.00
2023-06-28T03:07:41.136Z,447.00
2023-06-28T03:08:41.156Z,446.00
2023-06-28T03:09:41.178Z,444.00
2023-06-28T03:10:41.505Z,441.00
2023-06-28T03:11:41.260Z,443.00
2023-06-28T03:12:41.286Z,442.00
2023-06-28T03:13:41.302Z,440.00
2023-06-28T03:14:41.347Z,440.00
2023-06-28T03:15:41.390Z,440.00
2023-06-28T03:16:41.407Z,441.00
2023-06-28T03:17:41.496Z,442.00
2023-06-28T03:18:41.534Z,442.00
2023-06-28T03:19:41.624Z,442.00
2023-06-28T03:20:41.883Z,442.00
2023-06-28T03:21:41.602Z,441.00
2023-06-28T03:22:41.726Z,441.00
2023-06-28T03:23:41.700Z,439.00
2023-06-28T03:24:41.806Z,438.00
2023-06-28T03:25:41.831Z,440.00
2023-06-28T03:26:41.909Z,439.00
2023-06-28T03:27:41.865Z,437.00
2023-06-28T03:28:41.888Z,437.00
2023-06-28T03:29:41.957Z,435.00
2023-06-28T03:30:42.156Z,435.00
2023-06-28T03:31:42.039Z,435.00
2023-06-28T03:32:42.159Z,436.00
2023-06-28T03:33:42.088Z,433.00
2023-06-28T03:34:42.098Z,433.00
2023-06-28T03:35:42.170Z,432.00
2023-06-28T03:36:54.469Z,431.00
2023-06-28T03:37:43.184Z,433.00
2023-06-28T03:38:42.174Z,433.00
2023-06-28T03:39:42.143Z,432.00
2023-06-28T03:40:42.333Z,433.00
2023-06-28T03:41:42.132Z,434.00
2023-06-28T03:42:42.147Z,436.00
2023-06-28T03:43:42.109Z,437.00
2023-06-28T03:44:42.148Z,434.00
2023-06-28T03:45:42.103Z,434.00
2023-06-28T03:46:42.276Z,434.00
2023-06-28T03:47:42.194Z,433.00
2023-06-28T03:48:42.109Z,433.00
2023-06-28T03:49:42.122Z,434.00
2023-06-28T03:50:42.382Z,435.00
2023-06-28T03:51:42.224Z,434.00
2023-06-28T03:52:42.234Z,432.00
2023-06-28T03:53:42.298Z,433.00
2023-06-28T03:54:42.335Z,436.00
2023-06-28T03:55:42.842Z,437.00
2023-06-28T03:56:42.400Z,437.00
2023-06-28T03:57:42.473Z,436.00
2023-06-28T03:58:42.549Z,435.00
2023-06-28T03:59:42.518Z,434.00
2023-06-28T04:00:42.770Z,434.00
2023-06-28T04:01:42.701Z,433.00
2023-06-28T04:02:42.835Z,434.00
2023-06-28T04:03:42.789Z,436.00
2023-06-28T04:04:42.798Z,436.00
2023-06-28T04:05:42.768Z,437.00
2023-06-28T04:06:42.838Z,436.00
2023-06-28T04:07:42.930Z,438.00
2023-06-28T04:08:44.871Z,438.00
2023-06-28T04:09:42.936Z,437.00
2023-06-28T04:10:43.209Z,436.00
2023-06-28T04:11:43.024Z,432.00
2023-06-28T04:12:43.056Z,430.00
2023-06-28T04:13:43.087Z,431.00
2023-06-28T04:14:43.146Z,430.00
2023-06-28T04:15:43.213Z,427.00
2023-06-28T04:16:43.257Z,428.00
2023-06-28T04:17:43.387Z,429.00
2023-06-28T04:18:43.406Z,429.00
2023-06-28T04:19:43.426Z,429.00
2023-06-28T04:20:43.905Z,429.00
2023-06-28T04:21:43.482Z,428.00
2023-06-28T04:22:43.534Z,428.00
2023-06-28T04:23:43.607Z,428.00
2023-06-28T04:24:43.658Z,431.00
2023-06-28T04:25:43.680Z,436.00
2023-06-28T04:26:44.326Z,439.00
2023-06-28T04:27:43.789Z,440.00
2023-06-28T04:28:43.881Z,440.00
2023-06-28T04:29:44.009Z,440.00
2023-06-28T04:30:44.081Z,438.00
2023-06-28T04:31:44.246Z,439.00
2023-06-28T04:32:44.162Z,438.00
2023-06-28T04:33:44.085Z,439.00
2023-06-28T04:34:44.086Z,438.00
2023-06-28T04:35:44.165Z,440.00
2023-06-28T04:36:44.202Z,437.00
2023-06-28T04:37:44.249Z,438.00
2023-06-28T04:38:44.309Z,436.00
2023-06-28T04:39:44.339Z,435.00
2023-06-28T04:40:44.674Z,436.00
2023-06-28T04:41:44.428Z,436.00
2023-06-28T04:42:44.551Z,436.00
2023-06-28T04:43:44.617Z,436.00
2023-06-28T04:44:44.609Z,437.00
2023-06-28T04:45:44.690Z,437.00
2023-06-28T04:46:44.686Z,438.00
2023-06-28T04:47:44.819Z,438.00
2023-06-28T04:48:44.787Z,437.00
2023-06-28T04:49:44.823Z,438.00
2023-06-28T04:50:44.954Z,439.00
2023-06-28T04:51:44.951Z,438.00
2023-06-28T04:52:44.990Z,436.00
2023-06-28T04:53:45.037Z,435.00
2023-06-28T04:54:45.097Z,434.00
2023-06-28T04:55:45.111Z,436.00
2023-06-28T04:56:45.222Z,436.00
2023-06-28T04:57:45.229Z,437.00
2023-06-28T04:58:45.281Z,438.00
2023-06-28T04:59:45.400Z,436.00
2023-06-28T05:00:45.506Z,433.00
2023-06-28T05:01:45.572Z,434.00
2023-06-28T05:02:45.595Z,435.00
2023-06-28T05:03:45.564Z,432.00
2023-06-28T05:04:45.643Z,432.00
2023-06-28T05:05:45.611Z,434.00
2023-06-28T05:06:45.679Z,435.00
2023-06-28T05:07:45.696Z,438.00
2023-06-28T05:08:45.766Z,438.00
2023-06-28T05:09:45.825Z,439.00
2023-06-28T05:10:45.854Z,439.00
2023-06-28T05:11:45.893Z,438.00
2023-06-28T05:12:45.997Z,439.00
2023-06-28T05:13:46.001Z,439.00
2023-06-28T05:14:46.181Z,440.00
2023-06-28T05:15:46.397Z,439.00
2023-06-28T05:16:46.149Z,438.00
2023-06-28T05:17:46.242Z,436.00
2023-06-28T05:18:46.202Z,436.00
2023-06-28T05:19:46.265Z,436.00
2023-06-28T05:20:46.293Z,436.00
2023-06-28T05:21:46.358Z,435.00
2023-06-28T05:22:46.394Z,435.00
2023-06-28T05:23:46.455Z,435.00
2023-06-28T05:24:46.574Z,434.00
2023-06-28T05:25:46.602Z,435.00
2023-06-28T05:26:46.706Z,434.00
2023-06-28T05:27:46.684Z,435.00
2023-06-28T05:28:46.750Z,435.00
2023-06-28T05:29:46.772Z,436.00
2023-06-28T05:30:47.671Z,436.00
2023-06-28T05:32:31.485Z,452.00
2023-06-28T05:33:31.374Z,452.00
2023-06-28T05:34:31.360Z,450.00
2023-06-28T05:35:31.383Z,451.00
2023-06-28T05:36:31.505Z,450.00
2023-06-28T05:37:31.363Z,454.00
2023-06-28T05:38:31.323Z,452.00
2023-06-28T05:39:31.365Z,453.00
2023-06-28T05:40:31.327Z,453.00
2023-06-28T05:41:31.490Z,451.00
2023-06-28T05:42:31.301Z,449.00
2023-06-28T05:43:31.352Z,447.00
2023-06-28T05:44:31.282Z,448.00
2023-06-28T05:45:31.295Z,447.00
2023-06-28T05:46:31.270Z,447.00
2023-06-28T05:47:31.310Z,447.00
2023-06-28T05:48:31.360Z,446.00
2023-06-28T05:49:31.328Z,450.00
2023-06-28T05:50:31.282Z,452.00
2023-06-28T05:51:31.992Z,450.00
2023-06-28T05:52:31.243Z,450.00
2023-06-28T05:53:31.256Z,451.00
2023-06-28T05:54:31.221Z,450.00
2023-06-28T05:55:31.245Z,451.00
2023-06-28T05:56:31.280Z,450.00
2023-06-28T05:57:31.364Z,452.00
2023-06-28T05:58:31.446Z,454.00
2023-06-28T05:59:31.466Z,456.00
2023-06-28T06:00:31.433Z,457.00
2023-06-28T06:01:31.529Z,459.00
2023-06-28T06:02:31.573Z,460.00
2023-06-28T06:03:32.769Z,461.00
2023-06-28T06:04:31.606Z,459.00
2023-06-28T06:05:31.834Z,460.00
2023-06-28T06:06:31.998Z,458.00
2023-06-28T06:07:31.935Z,460.00
2023-06-28T06:08:31.817Z,462.00
2023-06-28T06:09:31.928Z,463.00
2023-06-28T06:10:31.937Z,463.00
2023-06-28T06:11:32.014Z,462.00
2023-06-28T06:12:32.027Z,458.00
2023-06-28T06:13:32.116Z,456.00
2023-06-28T06:14:32.158Z,458.00
2023-06-28T06:15:32.194Z,457.00
2023-06-28T06:16:32.289Z,455.00
2023-06-28T06:17:32.394Z,454.00
2023-06-28T06:18:32.486Z,454.00
2023-06-28T06:19:32.429Z,455.00
2023-06-28T06:20:32.408Z,457.00
2023-06-28T06:21:32.499Z,457.00
2023-06-28T06:22:32.495Z,456.00
2023-06-28T06:23:32.515Z,456.00
2023-06-28T06:24:32.620Z,455.00
2023-06-28T06:25:32.643Z,454.00
2023-06-28T06:26:34.735Z,455.00
2023-06-28T06:27:32.755Z,457.00
2023-06-28T06:28:32.798Z,458.00
2023-06-28T06:29:32.938Z,461.00
2023-06-28T06:30:32.940Z,462.00
2023-06-28T06:31:33.164Z,464.00
2023-06-28T06:32:33.500Z,466.00
2023-06-28T06:33:33.097Z,466.00
2023-06-28T06:34:33.113Z,464.00
2023-06-28T06:35:33.257Z,461.00
2023-06-28T06:36:33.596Z,461.00
2023-06-28T06:37:33.994Z,458.00
2023-06-28T06:38:33.386Z,458.00
2023-06-28T06:39:33.429Z,458.00
2023-06-28T06:40:33.438Z,457.00
2023-06-28T06:41:34.009Z,456.00
2023-06-28T06:42:33.781Z,455.00
2023-06-28T06:43:33.661Z,456.00
2023-06-28T06:44:33.791Z,455.00
2023-06-28T06:45:33.789Z,452.00
2023-06-28T06:46:33.825Z,450.00
2023-06-28T06:47:33.979Z,451.00
2023-06-28T06:48:33.854Z,452.00
2023-06-28T06:49:34.034Z,454.00
2023-06-28T06:50:34.007Z,454.00
2023-06-28T06:51:33.958Z,454.00
2023-06-28T06:52:35.057Z,454.00
2023-06-28T06:53:35.141Z,455.00
2023-06-28T06:54:34.708Z,457.00
2023-06-28T06:55:34.180Z,458.00
2023-06-28T06:56:34.316Z,459.00
2023-06-28T06:57:35.058Z,459.00
2023-06-28T06:58:34.331Z,457.00
2023-06-28T06:59:34.375Z,457.00
2023-06-28T07:00:34.525Z,460.00
2023-06-28T07:01:34.521Z,459.00
2023-06-28T07:02:34.604Z,462.00
2023-06-28T07:03:34.554Z,462.00
2023-06-28T07:04:34.661Z,460.00
2023-06-28T07:05:34.649Z,460.00
2023-06-28T07:06:34.706Z,457.00
2023-06-28T07:07:34.893Z,456.00
2023-06-28T07:08:34.776Z,455.00
2023-06-28T07:09:35.120Z,457.00
2023-06-28T07:10:35.638Z,458.00
2023-06-28T07:11:35.593Z,460.00
2023-06-28T07:12:34.902Z,459.00
2023-06-28T07:13:34.926Z,458.00
2023-06-28T07:14:35.050Z,460.00
2023-06-28T07:15:35.145Z,462.00
2023-06-28T07:16:35.006Z,462.00
2023-06-28T07:17:35.130Z,461.00
2023-06-28T07:18:36.133Z,459.00
2023-06-28T07:19:35.083Z,459.00
2023-06-28T07:20:35.154Z,462.00
2023-06-28T07:21:35.179Z,465.00
2023-06-28T07:22:35.299Z,467.00
2023-06-28T07:23:35.283Z,466.00
2023-06-28T07:24:35.572Z,465.00
2023-06-28T07:25:35.291Z,465.00
2023-06-28T07:26:35.384Z,464.00
2023-06-28T07:27:35.396Z,463.00
2023-06-28T07:28:35.471Z,464.00
2023-06-28T07:29:35.427Z,464.00
2023-06-28T07:30:35.471Z,463.00
2023-06-28T07:31:35.617Z,461.00
2023-06-28T07:32:35.645Z,462.00
2023-06-28T07:33:35.661Z,461.00
2023-06-28T07:34:35.688Z,463.00
2023-06-28T07:35:35.742Z,466.00
2023-06-28T07:36:36.521Z,468.00
2023-06-28T07:37:35.833Z,468.00
2023-06-28T07:38:35.812Z,468.00
2023-06-28T07:39:35.858Z,469.00
2023-06-28T07:40:35.975Z,466.00
2023-06-28T07:41:36.030Z,466.00
2023-06-28T07:42:35.999Z,465.00
2023-06-28T07:43:35.988Z,466.00
2023-06-28T07:44:36.150Z,466.00
2023-06-28T07:45:36.298Z,466.00
2023-06-28T07:46:36.194Z,467.00
2023-06-28T07:47:36.131Z,468.00
2023-06-28T07:48:36.184Z,468.00
2023-06-28T07:49:36.185Z,470.00
2023-06-28T07:50:36.286Z,468.00
2023-06-28T07:51:36.596Z,467.00
2023-06-28T07:52:36.275Z,467.00
2023-06-28T07:53:36.358Z,465.00
2023-06-28T07:54:36.350Z,464.00
2023-06-28T07:55:37.304Z,463.00
2023-06-28T07:56:36.668Z,465.00
2023-06-28T07:57:36.462Z,464.00
2023-06-28T07:58:36.480Z,465.00
2023-06-28T07:59:37.167Z,465.00
2023-06-28T08:00:36.573Z,465.00
2023-06-28T08:01:36.797Z,463.00
2023-06-28T08:02:36.718Z,460.00
2023-06-28T08:03:36.831Z,462.00
2023-06-28T08:04:39.640Z,463.00
2023-06-28T08:05:36.754Z,464.00
2023-06-28T08:06:36.776Z,467.00
2023-06-28T08:07:36.783Z,468.00
2023-06-28T08:08:36.725Z,468.00
2023-06-28T08:09:36.792Z,468.00
2023-06-28T08:10:36.804Z,469.00
2023-06-28T08:11:36.778Z,468.00
2023-06-28T08:12:36.655Z,467.00
2023-06-28T08:13:36.712Z,466.00
2023-06-28T08:14:36.694Z,466.00
2023-06-28T08:15:36.718Z,465.00
2023-06-28T08:16:36.658Z,464.00
2023-06-28T08:17:36.702Z,464.00
2023-06-28T08:18:37.703Z,465.00
2023-06-28T08:19:36.698Z,465.00
2023-06-28T08:20:36.708Z,465.00
2023-06-28T08:21:36.600Z,464.00
2023-06-28T08:22:36.905Z,466.00
2023-06-28T08:23:36.576Z,465.00
2023-06-28T08:24:37.600Z,463.00
2023-06-28T08:25:36.699Z,462.00
2023-06-28T08:26:36.579Z,463.00
2023-06-28T08:27:36.606Z,465.00
2023-06-28T08:28:46.719Z,465.00
2023-06-28T08:29:37.628Z,465.00
2023-06-28T08:30:36.540Z,465.00
2023-06-28T08:31:36.698Z,466.00
2023-06-28T08:32:36.596Z,468.00
2023-06-28T08:33:36.536Z,468.00
2023-06-28T08:34:36.545Z,468.00
2023-06-28T08:35:36.555Z,467.00
2023-06-28T08:36:36.580Z,467.00
2023-06-28T08:37:36.529Z,464.00
2023-06-28T08:38:36.493Z,464.00
2023-06-28T08:39:36.530Z,464.00
2023-06-28T08:40:36.542Z,463.00
2023-06-28T08:41:36.563Z,462.00
2023-06-28T08:42:36.593Z,462.00
2023-06-28T08:43:36.540Z,462.00
2023-06-28T08:44:36.628Z,462.00
2023-06-28T08:45:36.657Z,463.00
2023-06-28T08:46:36.713Z,463.00
2023-06-28T08:47:36.775Z,462.00
2023-06-28T08:48:36.805Z,462.00
2023-06-28T08:49:36.778Z,460.00
2023-06-28T08:50:36.870Z,462.00
2023-06-28T08:51:37.675Z,465.00
2023-06-28T08:52:36.910Z,465.00
2023-06-28T08:53:36.898Z,465.00
2023-06-28T08:54:36.970Z,465.00
2023-06-28T08:55:37.076Z,466.00
2023-06-28T08:56:43.746Z,467.00
2023-06-28T08:57:38.025Z,469.00
2023-06-28T08:58:37.044Z,467.00
2023-06-28T08:59:37.093Z,466.00
2023-06-28T09:00:36.989Z,468.00
2023-06-28T09:01:37.092Z,469.00
2023-06-28T09:02:37.197Z,467.00
2023-06-28T09:03:37.129Z,468.00
2023-06-28T09:04:37.002Z,468.00
2023-06-28T09:05:37.013Z,467.00
2023-06-28T09:06:37.574Z,467.00
2023-06-28T09:07:38.686Z,468.00
2023-06-28T09:08:37.118Z,469.00
2023-06-28T09:09:37.081Z,470.00
2023-06-28T09:10:37.145Z,471.00
2023-06-28T09:11:37.196Z,471.00
2023-06-28T09:12:37.135Z,471.00
2023-06-28T09:13:37.119Z,472.00
2023-06-28T09:14:37.136Z,470.00
2023-06-28T09:15:37.111Z,468.00
2023-06-28T09:16:38.087Z,468.00
2023-06-28T09:17:37.159Z,468.00
2023-06-28T09:18:37.124Z,468.00
2023-06-28T09:19:37.117Z,468.00
2023-06-28T09:20:37.136Z,468.00
2023-06-28T09:21:37.080Z,470.00
2023-06-28T09:22:37.089Z,470.00
2023-06-28T09:23:37.165Z,471.00
2023-06-28T09:24:37.181Z,471.00
2023-06-28T09:25:37.229Z,472.00
2023-06-28T09:26:37.651Z,472.00
2023-06-28T09:27:37.271Z,476.00
2023-06-28T09:28:38.643Z,477.00
2023-06-28T09:29:37.362Z,477.00
2023-06-28T09:30:37.399Z,479.00
2023-06-28T09:31:38.150Z,479.00
2023-06-28T09:32:37.603Z,478.00
2023-06-28T09:33:37.550Z,475.00
2023-06-28T09:34:37.519Z,475.00
2023-06-28T09:35:37.564Z,475.00
2023-06-28T09:36:39.171Z,475.00
2023-06-28T09:37:37.679Z,475.00
2023-06-28T09:38:37.675Z,473.00
2023-06-28T09:39:38.672Z,471.00
2023-06-28T09:40:37.909Z,470.00
2023-06-28T09:41:38.117Z,471.00
2023-06-28T09:42:37.814Z,469.00
2023-06-28T09:43:37.791Z,471.00
2023-06-28T09:44:37.805Z,469.00
2023-06-28T09:45:38.741Z,469.00
2023-06-28T09:46:38.186Z,469.00
2023-06-28T09:47:37.975Z,469.00
2023-06-28T09:48:37.978Z,469.00
2023-06-28T09:49:40.640Z,470.00
2023-06-28T09:50:38.013Z,471.00
2023-06-28T09:51:38.126Z,474.00
2023-06-28T09:52:37.959Z,477.00
2023-06-28T09:53:37.982Z,478.00
2023-06-28T09:54:37.953Z,478.00
2023-06-28T09:55:38.010Z,477.00
2023-06-28T09:56:37.960Z,477.00
2023-06-28T09:57:37.942Z,477.00
2023-06-28T09:58:37.911Z,478.00
2023-06-28T09:59:37.969Z,478.00
2023-06-28T10:00:37.898Z,477.00
2023-06-28T10:01:37.942Z,476.00
2023-06-28T10:02:38.012Z,472.00
2023-06-28T10:03:38.758Z,472.00
2023-06-28T10:04:38.042Z,470.00
2023-06-28T10:05:37.864Z,470.00
2023-06-28T10:06:38.122Z,469.00
2023-06-28T10:07:37.908Z,466.00
2023-06-28T10:08:37.836Z,467.00
2023-06-28T10:09:37.939Z,468.00
2023-06-28T10:10:37.879Z,470.00
2023-06-28T10:11:38.166Z,470.00
2023-06-28T10:12:37.814Z,471.00
2023-06-28T10:13:37.835Z,469.00
2023-06-28T10:14:37.860Z,469.00
2023-06-28T10:15:37.813Z,470.00
2023-06-28T10:16:38.141Z,472.00
2023-06-28T10:17:37.910Z,474.00
2023-06-28T10:18:37.843Z,472.00
2023-06-28T10:19:38.757Z,470.00
2023-06-28T10:20:37.908Z,469.00
2023-06-28T10:21:38.693Z,468.00
2023-06-28T10:22:37.784Z,468.00
2023-06-28T10:23:37.868Z,466.00
2023-06-28T10:24:38.601Z,464.00
2023-06-28T10:25:37.748Z,461.00
2023-06-28T10:26:38.116Z,459.00
2023-06-28T10:27:37.781Z,457.00
2023-06-28T10:28:37.739Z,458.00
2023-06-28T10:29:37.720Z,458.00
2023-06-28T10:30:38.601Z,460.00
2023-06-28T10:31:37.805Z,460.00
2023-06-28T10:32:37.734Z,458.00
2023-06-28T10:33:38.131Z,457.00
2023-06-28T10:34:37.708Z,461.00
2023-06-28T10:35:37.679Z,464.00
2023-06-28T10:36:38.153Z,462.00
2023-06-28T10:37:38.629Z,461.00
2023-06-28T10:38:38.605Z,460.00
2023-06-28T10:39:37.625Z,461.00
2023-06-28T10:40:37.619Z,461.00
2023-06-28T10:41:37.625Z,461.00
2023-06-28T10:42:37.704Z,460.00
2023-06-28T10:43:37.599Z,459.00
2023-06-28T10:44:37.597Z,456.00
2023-06-28T10:45:37.652Z,456.00
2023-06-28T10:46:38.248Z,458.00
2023-06-28T10:47:37.674Z,460.00
2023-06-28T10:48:37.615Z,458.00
2023-06-28T10:49:37.700Z,456.00
2023-06-28T10:50:37.695Z,454.00
2023-06-28T10:51:37.722Z,455.00
2023-06-28T10:52:37.760Z,454.00
2023-06-28T10:53:37.866Z,453.00
2023-06-28T10:54:37.769Z,452.00
2023-06-28T10:55:37.845Z,451.00
2023-06-28T10:56:38.107Z,450.00
2023-06-28T10:57:37.893Z,452.00
2023-06-28T10:58:37.959Z,453.00
2023-06-28T10:59:37.935Z,454.00
2023-06-28T11:00:38.040Z,456.00
2023-06-28T11:01:38.092Z,457.00
2023-06-28T11:02:38.035Z,457.00
2023-06-28T11:03:38.040Z,457.00
2023-06-28T11:04:38.053Z,457.00
2023-06-28T11:05:38.134Z,460.00
2023-06-28T11:06:38.136Z,459.00
2023-06-28T11:07:38.234Z,461.00
2023-06-28T11:08:38.132Z,462.00
2023-06-28T11:09:38.169Z,460.00
2023-06-28T11:10:38.169Z,460.00
2023-06-28T11:11:38.287Z,459.00
2023-06-28T11:12:40.474Z,458.00
2023-06-28T11:13:38.278Z,458.00
2023-06-28T11:14:38.202Z,457.00
2023-06-28T11:15:38.220Z,457.00
2023-06-28T11:16:38.629Z,457.00
2023-06-28T11:17:38.220Z,457.00
2023-06-28T11:18:38.213Z,458.00
2023-06-28T11:19:38.176Z,457.00
2023-06-28T11:20:38.213Z,455.00
2023-06-28T11:21:38.182Z,453.00
2023-06-28T11:22:38.189Z,452.00
2023-06-28T11:23:38.154Z,448.00
2023-06-28T11:24:38.166Z,447.00
2023-06-28T11:25:38.129Z,446.00
2023-06-28T11:26:38.159Z,446.00
2023-06-28T11:27:38.116Z,447.00
2023-06-28T11:28:38.138Z,449.00
2023-06-28T11:29:38.126Z,448.00
2023-06-28T11:30:38.118Z,451.00
2023-06-28T11:31:38.099Z,452.00
2023-06-28T11:32:38.149Z,456.00
2023-06-28T11:33:38.076Z,455.00
2023-06-28T11:34:38.100Z,457.00
2023-06-28T11:35:38.070Z,458.00
2023-06-28T11:36:38.045Z,460.00
2023-06-28T11:37:38.077Z,463.00
2023-06-28T11:38:38.043Z,463.00
2023-06-28T11:39:38.060Z,463.00
2023-06-28T11:40:38.029Z,464.00
2023-06-28T11:41:38.048Z,462.00
2023-06-28T11:42:38.012Z,460.00
2023-06-28T11:43:38.012Z,460.00
2023-06-28T11:44:38.018Z,461.00
2023-06-28T11:45:38.032Z,460.00
2023-06-28T11:46:38.052Z,460.00
2023-06-28T11:47:37.994Z,461.00
2023-06-28T11:48:37.983Z,458.00
2023-06-28T11:49:37.980Z,457.00
2023-06-28T11:50:37.991Z,457.00
2023-06-28T11:51:37.968Z,458.00
2023-06-28T11:52:37.997Z,457.00
2023-06-28T11:53:37.944Z,458.00
2023-06-28T11:54:37.937Z,457.00
2023-06-28T11:55:37.914Z,456.00
2023-06-28T11:56:37.947Z,456.00
2023-06-28T11:57:37.914Z,456.00
2023-06-28T11:58:37.936Z,456.00
2023-06-28T11:59:37.901Z,455.00
2023-06-28T12:00:37.944Z,455.00
2023-06-28T12:01:37.898Z,452.00
2023-06-28T12:02:37.931Z,450.00
2023-06-28T12:03:37.974Z,451.00
2023-06-28T12:04:38.025Z,449.00
2023-06-28T12:05:37.879Z,447.00
2023-06-28T12:06:37.887Z,445.00
2023-06-28T12:07:37.904Z,444.00
2023-06-28T12:08:37.873Z,444.00
2023-06-28T12:09:37.844Z,444.00
2023-06-28T12:10:37.872Z,443.00
2023-06-28T12:11:37.876Z,443.00
2023-06-28T12:12:37.845Z,443.00
2023-06-28T12:13:37.800Z,442.00
2023-06-28T12:14:37.828Z,439.00
2023-06-28T12:15:37.801Z,439.00
2023-06-28T12:16:37.806Z,440.00
2023-06-28T12:17:38.214Z,440.00
2023-06-28T12:18:37.779Z,441.00
2023-06-28T12:19:37.750Z,443.00
2023-06-28T12:20:37.777Z,442.00
2023-06-28T12:21:37.878Z,439.00
2023-06-28T12:22:37.814Z,440.00
2023-06-28T12:23:37.820Z,439.00
2023-06-28T12:24:37.888Z,439.00
2023-06-28T12:25:37.865Z,439.00
2023-06-28T12:26:37.902Z,439.00
2023-06-28T12:27:37.929Z,438.00
2023-06-28T12:28:38.001Z,435.00
2023-06-28T12:29:37.984Z,437.00
2023-06-28T12:30:38.014Z,437.00